Latest Weather Observations for East Sale

IDV60801

Issued at 9:31 pm EST Thursday 28 May 2015 (issued every 30 minutes, with the page automatically refreshed every 10 minutes)

About weather observations | Map of weather stations | Latest weather observations for VIC | Other Formats
Station Details ID: 085072 Name: EAST SALE AIRPORT Lat: -38.12 Lon: 147.13 Height: 4.6 m
Data from the previous 72 hours. | See also: Recent months at East Sale
Date/Time
EST
Temp
°C
App
Temp
°C
Dew
Point
Rel
Hum
%
Delta-T
°C
Wind Press
QNH
hPa
Press
MSL
hPa
Rain
since 9 am
mm
Dir
 
Spd
km/h
Gust
km/h
Spd
kts
Gust
kts
28/09:30pm 14.0 10.1 7.1 63 3.4 N 17 19 9 10 1014.4 1014.4 0.0
28/09:00pm 14.3 10.1 7.6 64 3.3 NNW 19 20 10 11 1014.2 1014.2 0.0
28/08:30pm 14.5 10.9 8.5 67 3.0 NNW 17 19 9 10 1014.4 1014.4 0.0
28/08:00pm 13.1 11.0 8.2 72 2.4 N 9 13 5 7 1014.4 1014.4 0.0
28/07:30pm 14.8 11.7 8.7 67 3.1 NNW 15 15 8 8 1014.3 1014.3 0.0
28/07:00pm 14.9 11.7 8.6 66 3.2 NNW 15 19 8 10 1014.4 1014.4 0.0
28/06:30pm 15.7 12.2 8.9 64 3.5 NW 17 22 9 12 1014.3 1014.3 0.0
28/06:00pm 14.7 11.4 9.7 72 2.6 NNW 17 20 9 11 1014.1 1014.1 0.0
28/05:30pm 15.6 11.9 9.5 67 3.2 NW 19 20 10 11 1014.0 1014.0 0.0
28/05:00pm 16.5 12.7 9.9 65 3.5 NNW 20 26 11 14 1014.0 1014.0 0.0
28/04:30pm 16.7 13.0 10.1 65 3.5 NNW 20 26 11 14 1014.0 1014.0 0.0
28/04:00pm 17.8 15.0 9.9 60 4.2 NNW 15 20 8 11 1013.9 1013.9 0.0
28/03:30pm 18.2 14.4 9.8 58 4.4 NNW 20 24 11 13 1014.1 1014.1 0.0
28/03:00pm 19.4 15.7 9.6 53 5.2 NNW 19 33 10 18 1014.4 1014.4 0.0
28/02:30pm 17.8 16.1 9.9 60 4.2 NW 9 15 5 8 1014.8 1014.8 0.0
28/02:00pm 17.9 16.2 9.8 59 4.3 NNW 9 15 5 8 1014.6 1014.6 0.0
28/01:30pm 20.4 16.6 9.0 48 6.0 NNW 19 24 10 13 1014.8 1014.8 0.0
28/01:00pm 19.3 14.7 8.3 49 5.7 NNW 22 32 12 17 1015.4 1015.4 0.0
28/12:30pm 19.9 16.2 10.3 54 5.2 N 20 26 11 14 1015.6 1015.6 0.0
28/12:00pm 18.5 15.5 12.0 66 3.6 NW 19 28 10 15 1016.1 1016.1 0.0
28/11:30am 17.9 15.6 11.7 67 3.4 NW 15 20 8 11 1016.6 1016.6 0.0
28/11:00am 18.1 16.7 11.0 63 3.8 NNW 9 13 5 7 1017.2 1017.2 0.0
28/10:30am 16.0 14.9 12.0 77 2.2 NW 9 17 5 9 1017.7 1017.7 0.0
28/09:00am 11.2 10.5 10.1 93 0.6 S 4 7 2 4 1018.4 1018.4 0.0
28/08:30am 10.3 8.4 9.2 93 0.5 SSW 9 11 5 6 1018.5 1018.5 0.0
28/08:00am 8.6 8.2 8.2 97 0.2 CALM 0 0 0 0 1018.3 1018.3 0.0
28/07:30am 6.8 4.6 6.1 95 0.3 NW 7 11 4 6 1018.2 1018.2 0.0
28/07:00am 7.4 4.9 6.7 95 0.3 ENE 9 13 5 7 1017.9 1017.9 0.0
28/06:30am 8.6 7.0 8.2 97 0.2 NNE 6 7 3 4 1018.0 1018.0 0.0
28/06:00am 8.6 7.0 8.0 96 0.3 SSW 6 9 3 5 1018.0 1018.0 0.0
28/05:30am 8.2 7.7 7.8 97 0.2 CALM 0 4 0 2 1017.8 1017.8 0.0
28/05:00am 8.1 6.3 7.8 98 0.1 SW 7 13 4 7 1017.8 1017.8 0.0
28/04:30am 6.7 5.9 6.4 98 0.1 CALM 0 7 0 4 1018.0 1018.0 0.0
28/04:00am 5.8 4.3 5.1 95 0.3 N 2 7 1 4 1018.1 1018.1 0.0
28/03:30am 6.2 3.9 5.6 96 0.3 NE 7 9 4 5 1018.3 1018.3 0.0
28/03:00am 6.9 4.8 6.5 97 0.2 ESE 7 11 4 6 1018.6 1018.6 0.0
28/02:30am 6.5 4.5 6.1 97 0.2 S 6 7 3 4 1018.9 1018.9 0.0
28/02:00am 7.2 5.2 6.9 98 0.1 SSE 7 11 4 6 1018.8 1018.8 0.0
28/01:30am 5.5 3.6 4.9 96 0.3 N 4 7 2 4 1018.8 1018.8 0.0
28/01:00am 6.7 4.0 5.7 93 0.4 NE 9 11 5 6 1018.9 1018.9 0.0
28/12:30am 6.2 4.0 5.5 95 0.3 NE 6 7 3 4 1019.2 1019.2 0.0
28/12:00am 6.7 4.5 6.0 95 0.3 NE 7 9 4 5 1019.4 1019.4 0.0
 
Date/Time
EST
Temp
°C
App
Temp
°C
Dew
Point
Rel
Hum
%
Delta-T
°C
Wind Press
QNH
hPa
Press
MSL
hPa
Rain
since 9 am
mm
Dir
 
Spd
km/h
Gust
km/h
Spd
kts
Gust
kts
27/11:30pm 6.9 4.3 6.2 95 0.3 NE 9 11 5 6 1019.4 1019.4 0.0
27/11:00pm 7.0 4.5 6.7 98 0.1 ENE 9 11 5 6 1019.6 1019.6 0.0
27/10:30pm 6.8 4.7 6.5 98 0.1 NE 7 9 4 5 1019.6 1019.6 0.0
27/10:23pm 6.8 4.3 6.5 98 0.1 ENE 9 11 5 6 1019.6 1019.6 0.0
27/10:00pm 6.4 3.4 6.1 98 0.1 E 11 13 6 7 1019.7 1019.7 0.0
27/09:30pm 7.3 5.5 7.0 98 0.1 SSE 6 7 3 4 1019.8 1019.8 0.0
27/09:00pm 7.4 6.7 7.0 97 0.2 CALM 0 0 0 0 1019.8 1019.8 0.0
27/08:52pm 7.3 6.6 6.9 97 0.2 CALM 0 0 0 0 1019.8 1019.8 0.0
27/08:30pm 7.5 6.8 6.9 96 0.3 CALM 0 0 0 0 1019.9 1019.9 0.0
27/08:00pm 8.9 7.8 8.5 97 0.2 N 4 7 2 4 1019.9 1019.9 0.0
27/07:30pm 9.0 7.5 8.4 96 0.3 NNW 6 7 3 4 1019.7 1019.7 0.0
27/07:00pm 9.3 7.5 8.1 92 0.6 NNW 7 9 4 5 1019.5 1019.5 0.0
27/06:30pm 10.0 8.5 8.3 89 0.8 NW 6 9 3 5 1019.2 1019.2 0.0
27/06:00pm 12.7 11.8 10.6 87 1.1 NW 6 11 3 6 1019.0 1019.0 0.0
27/05:30pm 13.1 11.9 11.5 90 0.8 ENE 9 9 5 5 1018.7 1018.7 0.0
27/05:00pm 14.4 14.2 11.9 85 1.3 E 4 7 2 4 1018.6 1018.6 0.0
27/04:30pm 15.5 15.2 12.8 84 1.5 SW 6 7 3 4 1018.4 1018.4 0.0
27/04:00pm 15.4 15.2 12.9 85 1.4 ENE 6 7 3 4 1018.5 1018.5 0.0
27/03:30pm 16.2 17.2 13.3 83 1.6 CALM 0 0 0 0 1018.5 1018.5 0.0
27/03:00pm 16.8 17.3 11.5 71 2.9 CALM 0 0 0 0 1018.5 1018.5 0.0
27/02:30pm 16.4 17.0 11.8 74 2.5 CALM 0 0 0 0 1018.5 1018.5 0.0
27/02:00pm 16.5 16.1 11.2 71 2.8 ENE 4 6 2 3 1018.8 1018.8 0.0
27/01:30pm 16.2 15.8 11.2 72 2.7 NNE 4 6 2 3 1018.9 1018.9 0.0
27/01:00pm 16.4 15.6 11.1 71 2.8 NNE 6 7 3 4 1019.3 1019.3 0.0
27/12:30pm 15.6 14.7 10.6 72 2.6 NNE 6 9 3 5 1019.6 1019.6 0.0
27/12:00pm 14.3 14.2 9.3 72 2.5 CALM 0 0 0 0 1020.3 1020.3 0.0
27/11:30am 14.6 13.3 9.2 70 2.8 NNE 6 9 3 5 1020.8 1020.8 0.0
27/11:00am 13.5 12.5 8.8 73 2.4 N 4 7 2 4 1021.3 1021.3 0.0
27/10:30am 11.9 10.4 8.4 79 1.7 NW 6 9 3 5 1021.6 1021.6 0.0
27/10:00am 9.3 7.7 7.9 91 0.7 WSW 6 7 3 4 1021.8 1021.8 0.0
27/09:30am 8.5 6.8 7.7 95 0.4 WSW 6 6 3 3 1022.0 1022.0 0.0
27/09:00am 8.6 8.3 8.5 99 0.0 CALM 0 0 0 0 1022.2 1022.2 0.0
27/08:30am 6.8 6.0 6.7 99 0.0 CALM 0 0 0 0 1022.2 1022.2 0.0
27/08:07am 5.1 4.0 5.0 99 0.0 CALM 0 0 0 0 1022.2 1022.2 0.0
27/08:00am 4.5 3.3 4.4 99 0.0 CALM 0 0 0 0 1022.2 1022.2 0.0
27/07:48am 4.0 2.7 3.9 99 0.0 CALM 0 0 0 0 1022.2 1022.2 0.0
27/07:30am 3.5 2.1 3.4 99 0.0 CALM 0 0 0 0 1022.2 1022.2 0.0
27/07:17am 3.0 1.5 2.9 99 0.0 CALM 0 0 0 0 1022.2 1022.2 0.0
27/07:00am 2.9 1.4 2.8 99 0.0 CALM 0 0 0 0 1022.3 1022.3 0.0
27/06:30am 2.9 1.4 2.8 99 0.0 CALM 0 0 0 0 1022.3 1022.3 0.0
27/06:00am 3.0 0.3 2.9 99 0.0 SSW 6 6 3 3 1022.2 1022.2 0.0
27/05:33am 3.1 0.5 3.0 99 0.0 WNW 6 7 3 4 1022.4 1022.4 0.0
27/05:30am 3.2 1.0 3.1 99 0.0 WNW 4 7 2 4 1022.4 1022.4 0.0
27/05:03am 3.7 1.2 3.6 99 0.0 N 6 7 3 4 1022.3 1022.3 0.0
27/05:00am 3.8 1.3 3.7 99 0.0 N 6 7 3 4 1022.3 1022.3 0.0
27/04:30am 3.8 2.4 3.5 98 0.1 CALM 0 0 0 0 1022.4 1022.4 0.0
27/04:28am 3.6 2.2 3.3 98 0.1 CALM 0 0 0 0 1022.5 1022.5 0.0
27/04:12am 3.9 1.2 3.6 98 0.1 W 7 9 4 5 1022.8 1022.8 0.0
27/04:00am 4.1 1.6 3.8 98 0.1 WNW 6 9 3 5 1022.7 1022.7 0.0
27/03:30am 4.1 1.6 3.8 98 0.1 NNW 6 7 3 4 1022.8 1022.8 0.0
27/03:00am 4.6 2.6 4.5 99 0.0 N 4 9 2 5 1023.2 1023.2 0.0
27/02:30am 3.7 2.3 3.3 97 0.2 CALM 0 0 0 0 1023.6 1023.6 0.0
27/02:08am 4.6 3.3 4.3 98 0.1 CALM 0 0 0 0 1023.8 1023.8 0.0
27/02:00am 4.4 3.1 4.0 97 0.2 CALM 0 0 0 0 1023.8 1023.8 0.0
27/01:43am 5.4 2.9 5.0 97 0.2 SSE 7 9 4 5 1023.7 1023.7 0.0
27/01:30am 5.4 2.9 4.7 95 0.3 S 7 7 4 4 1023.9 1023.9 0.0
27/01:00am 6.8 4.6 6.4 97 0.2 WSW 7 9 4 5 1024.5 1024.5 0.0
27/12:30am 7.3 5.4 6.7 96 0.3 WNW 6 7 3 4 1024.5 1024.5 0.0
27/12:00am 7.6 5.6 7.0 96 0.3 NW 7 9 4 5 1024.8 1024.8 0.0
 
Date/Time
EST
Temp
°C
App
Temp
°C
Dew
Point
Rel
Hum
%
Delta-T
°C
Wind Press
QNH
hPa
Press
MSL
hPa
Rain
since 9 am
mm
Dir
 
Spd
km/h
Gust
km/h
Spd
kts
Gust
kts
26/11:30pm 8.1 6.4 7.5 96 0.3 SSW 6 6 3 3 1024.8 1024.8 0.0
26/11:00pm 8.0 5.7 7.6 97 0.2 SE 9 13 5 7 1024.6 1024.6 0.0
26/10:30pm 7.5 5.6 6.8 95 0.3 E 6 7 3 4 1025.1 1025.1 0.0
26/10:00pm 7.2 4.3 6.5 95 0.3 ESE 11 13 6 7 1025.3 1025.3 0.0
26/09:30pm 7.3 6.5 6.4 94 0.4 CALM 0 0 0 0 1025.7 1025.7 0.0
26/09:00pm 7.7 6.2 7.0 95 0.3 SSW 4 6 2 3 1025.6 1025.6 0.0
26/08:30pm 8.0 5.6 7.1 94 0.4 ESE 9 11 5 6 1025.7 1025.7 0.0
26/08:00pm 7.9 7.2 7.0 94 0.4 CALM 0 0 0 0 1026.1 1026.1 0.0
26/07:30pm 8.2 7.5 6.8 91 0.6 CALM 0 0 0 0 1026.5 1026.5 0.0
26/07:00pm 7.9 6.5 5.5 85 1.1 SE 2 6 1 3 1026.4 1026.4 0.0
26/06:30pm 7.9 5.2 5.4 84 1.1 NNE 9 11 5 6 1026.2 1026.2 0.0
26/06:00pm 8.0 5.6 5.1 82 1.3 ENE 7 7 4 4 1026.4 1026.4 0.0
26/05:30pm 8.5 6.1 5.3 80 1.4 E 7 11 4 6 1026.4 1026.4 0.0
26/05:00pm 9.7 7.0 5.7 76 1.8 NE 9 9 5 5 1026.3 1026.3 0.0
26/04:30pm 11.6 9.0 6.3 70 2.5 NE 9 9 5 5 1026.5 1026.5 0.0
26/04:00pm 14.6 12.2 7.2 61 3.6 ENE 9 11 5 6 1026.4 1026.4 0.0
26/03:30pm 15.0 12.8 6.0 55 4.3 ESE 7 7 4 4 1026.3 1026.3 0.0
26/03:00pm 15.5 13.2 4.8 49 5.0 ESE 6 9 3 5 1026.3 1026.3 0.0
26/02:30pm 15.5 13.7 5.4 51 4.8 E 4 7 2 4 1026.7 1026.7 0.0
26/02:00pm 15.0 12.5 4.7 50 4.8 SSE 7 9 4 5 1026.9 1026.9 0.0
26/01:30pm 15.6 13.4 5.5 51 4.8 WSW 6 9 3 5 1027.3 1027.3 0.0
26/01:00pm 14.7 12.5 6.3 57 4.0 WNW 7 9 4 5 1027.6 1027.6 0.0
26/12:30pm 14.6 12.4 6.4 58 4.0 W 7 11 4 6 1028.1 1028.1 0.0
26/12:00pm 13.1 10.5 6.2 63 3.3 WNW 9 13 5 7 1028.6 1028.6 0.0
26/11:30am 11.6 9.1 6.5 71 2.4 WNW 9 11 5 6 1029.3 1029.3 0.0
26/11:00am 10.5 7.2 6.3 75 1.9 WNW 13 17 7 9 1030.0 1030.0 0.0
26/10:30am 9.2 6.2 5.8 79 1.6 WNW 11 13 6 7 1030.1 1030.1 0.0
26/10:00am 8.4 5.2 5.2 80 1.4 WNW 11 13 6 7 1030.3 1030.3 0.0
26/09:30am 7.5 3.7 3.9 78 1.5 WNW 13 15 7 8 1030.4 1030.4 0.0
26/09:00am 5.9 2.2 4.5 91 0.6 NW 13 17 7 9 1030.6 1030.6 0.2
26/08:30am 3.4 0.6 3.1 98 0.1 WNW 7 11 4 6 1030.6 1030.6 0.2
26/08:00am 2.2 -1.6 1.9 98 0.1 NW 11 13 6 7 1030.7 1030.7 0.2
26/07:30am 1.2 -2.7 0.9 98 0.1 NW 11 13 6 7 1030.3 1030.3 0.2
26/07:00am 1.1 -2.5 0.8 98 0.1 WNW 9 11 5 6 1030.1 1030.1 0.2
26/06:30am 0.8 -3.2 0.5 98 0.1 WNW 11 13 6 7 1030.1 1030.1 0.2
26/06:00am 0.9 -2.7 0.5 97 0.1 WNW 9 11 5 6 1029.9 1029.9 0.2
26/05:30am 1.6 -3.0 1.3 98 0.1 NW 15 17 8 9 1029.9 1029.9 0.2
26/05:00am 1.4 -2.1 1.1 98 0.1 NW 9 11 5 6 1029.8 1029.8 0.2
26/04:30am 1.7 -2.2 1.4 98 0.1 NW 11 13 6 7 1029.8 1029.8 0.2
26/04:00am 1.6 -2.3 1.3 98 0.1 WNW 11 11 6 6 1029.8 1029.8 0.2
26/03:30am 2.1 -0.9 1.8 98 0.1 WNW 7 9 4 5 1029.8 1029.8 0.2
26/03:00am 2.6 -0.7 2.3 98 0.1 WNW 9 11 5 6 1030.0 1030.0 0.2
26/02:30am 2.5 -1.6 2.2 98 0.1 NW 13 15 7 8 1030.2 1030.2 0.2
26/02:00am 2.2 -1.6 1.8 97 0.2 NW 11 11 6 6 1030.1 1030.1 0.2
26/01:30am 3.4 0.2 3.3 99 0.0 NW 9 11 5 6 1030.1 1030.1 0.2
26/01:11am 3.4 -0.1 3.3 99 0.0 NW 11 11 6 6 1030.1 1030.1 0.2
26/01:00am 2.2 -1.5 2.1 99 0.0 NW 11 13 6 7 1030.1 1030.1 0.2
26/12:51am 1.4 -2.5 1.1 98 0.1 NW 11 13 6 7 1030.1 1030.1 0.2
26/12:47am 2.6 -1.1 2.5 99 0.0 NW 11 13 6 7 1030.1 1030.1 0.2
26/12:30am 2.0 -1.4 1.7 98 0.1 WNW 9 9 5 5 1030.3 1030.3 0.2
26/12:00am 3.4 0.2 3.3 99 0.0 WNW 9 9 5 5 1030.5 1030.5 0.2
 
Date/Time
EST
Temp
°C
App
Temp
°C
Dew
Point
Rel
Hum
%
Delta-T
°C
Wind Press
QNH
hPa
Press
MSL
hPa
Rain
since 9 am
mm
Dir
 
Spd
km/h
Gust
km/h
Spd
kts
Gust
kts
25/11:46pm 2.6 -0.7 2.3 98 0.1 W 9 9 5 5 1030.6 1030.6 0.2
25/11:30pm 2.8 -0.5 2.5 98 0.1 W 9 11 5 6 1030.7 1030.7 0.2
25/11:00pm 3.6 0.1 3.3 98 0.1 W 11 13 6 7 1030.8 1030.8 0.2
25/10:30pm 3.6 0.0 2.9 95 0.3 WNW 11 13 6 7 1030.8 1030.8 0.2
25/10:00pm 5.0 1.3 4.3 95 0.3 WNW 13 13 7 7 1031.0 1031.0 0.2

Other Formats:

Comma delimited format used in spreadsheet applications
http://www.bom.gov.au/fwo/IDV60801/IDV60801.94907.axf

JavaScript Object Notation format (JSON) in row-major order
http://www.bom.gov.au/fwo/IDV60801/IDV60801.94907.json